sensor_id;sensor_type;location;lat;lon;timestamp;temperature;humidity
3017;DHT22;1518;52.408;13.060;2023-04-03T00:05:34;13.60;94.30
3017;DHT22;1518;52.408;13.060;2023-04-03T00:08:23;13.80;94.00
3017;DHT22;1518;52.408;13.060;2023-04-03T00:11:11;14.20;97.60
3017;DHT22;1518;52.408;13.060;2023-04-03T00:25:17;13.90;81.70
3017;DHT22;1518;52.408;13.060;2023-04-03T00:42:08;13.80;86.50
3017;DHT22;1518;52.408;13.060;2023-04-03T00:45:30;13.80;80.70
3017;DHT22;1518;52.408;13.060;2023-04-03T00:48:21;13.80;86.30
3017;DHT22;1518;52.408;13.060;2023-04-03T00:51:14;13.70;86.00
3017;DHT22;1518;52.408;13.060;2023-04-03T00:54:07;13.80;85.60
3017;DHT22;1518;52.408;13.060;2023-04-03T00:56:56;13.90;86.30
3017;DHT22;1518;52.408;13.060;2023-04-03T00:59:50;13.80;86.60
3017;DHT22;1518;52.408;13.060;2023-04-03T01:16:52;13.80;85.90
3017;DHT22;1518;52.408;13.060;2023-04-03T01:19:43;13.80;85.50
3017;DHT22;1518;52.408;13.060;2023-04-03T01:22:43;13.80;85.30
3017;DHT22;1518;52.408;13.060;2023-04-03T01:28:23;13.80;85.10
3017;DHT22;1518;52.408;13.060;2023-04-03T01:31:18;13.70;85.20
3017;DHT22;1518;52.408;13.060;2023-04-03T01:34:09;13.70;83.20
3017;DHT22;1518;52.408;13.060;2023-04-03T01:51:01;13.70;86.60
3017;DHT22;1518;52.408;13.060;2023-04-03T02:07:53;13.60;86.00
3017;DHT22;1518;52.408;13.060;2023-04-03T02:24:45;13.50;85.10
3017;DHT22;1518;52.408;13.060;2023-04-03T02:41:37;13.60;85.70
3017;DHT22;1518;52.408;13.060;2023-04-03T02:58:29;13.50;85.00
3017;DHT22;1518;52.408;13.060;2023-04-03T03:15:21;13.50;85.50
3017;DHT22;1518;52.408;13.060;2023-04-03T03:32:13;13.40;87.00
3017;DHT22;1518;52.408;13.060;2023-04-03T03:49:06;13.60;87.40
3017;DHT22;1518;52.408;13.060;2023-04-03T04:05:58;13.70;88.60
3017;DHT22;1518;52.408;13.060;2023-04-03T04:22:49;13.60;89.40
3017;DHT22;1518;52.408;13.060;2023-04-03T04:39:41;13.50;86.80
3017;DHT22;1518;52.408;13.060;2023-04-03T04:42:29;13.60;94.80
3017;DHT22;1518;52.408;13.060;2023-04-03T04:48:05;13.20;95.70
3017;DHT22;1518;52.408;13.060;2023-04-03T04:56:31;13.40;81.80
3017;DHT22;1518;52.408;13.060;2023-04-03T05:13:23;13.50;84.60
3017;DHT22;1518;52.408;13.060;2023-04-03T05:30:16;13.30;84.30
3017;DHT22;1518;52.408;13.060;2023-04-03T05:47:08;13.40;84.80
3017;DHT22;1518;52.408;13.060;2023-04-03T05:52:47;13.30;84.60
3017;DHT22;1518;52.408;13.060;2023-04-03T06:04:04;13.20;84.80
3017;DHT22;1518;52.408;13.060;2023-04-03T06:20:58;14.20;88.00
3017;DHT22;1518;52.408;13.060;2023-04-03T06:37:51;15.70;84.40
3017;DHT22;1518;52.408;13.060;2023-04-03T06:46:21;16.10;78.10
3017;DHT22;1518;52.408;13.060;2023-04-03T06:54:49;17.20;93.90
3017;DHT22;1518;52.408;13.060;2023-04-03T07:06:11;18.20;88.70
3017;DHT22;1518;52.408;13.060;2023-04-03T07:11:49;17.50;69.60
3017;DHT22;1518;52.408;13.060;2023-04-03T07:23:03;17.30;94.20
3017;DHT22;1518;52.408;13.060;2023-04-03T07:25:52;17.70;94.20
3017;DHT22;1518;52.408;13.060;2023-04-03T07:28:41;18.00;69.90
3017;DHT22;1518;52.408;13.060;2023-04-03T07:45:36;19.20;68.20
3017;DHT22;1518;52.408;13.060;2023-04-03T07:48:26;19.30;68.20
3017;DHT22;1518;52.408;13.060;2023-04-03T08:02:31;19.60;69.30
3017;DHT22;1518;52.408;13.060;2023-04-03T08:10:58;19.60;66.90
3017;DHT22;1518;52.408;13.060;2023-04-03T08:19:28;19.60;66.70
3017;DHT22;1518;52.408;13.060;2023-04-03T08:36:21;19.70;66.60
3017;DHT22;1518;52.408;13.060;2023-04-03T08:42:00;19.80;65.80
3017;DHT22;1518;52.408;13.060;2023-04-03T08:44:57;19.70;92.30
3017;DHT22;1518;52.408;13.060;2023-04-03T08:47:50;19.70;65.00
3017;DHT22;1518;52.408;13.060;2023-04-03T08:50:45;20.00;92.40
3017;DHT22;1518;52.408;13.060;2023-04-03T08:53:40;20.00;65.80
3017;DHT22;1518;52.408;13.060;2023-04-03T08:56:30;20.10;63.00
3017;DHT22;1518;52.408;13.060;2023-04-03T08:59:26;20.20;65.80
3017;DHT22;1518;52.408;13.060;2023-04-03T09:02:25;20.20;66.70
3017;DHT22;1518;52.408;13.060;2023-04-03T09:05:18;20.40;92.30
3017;DHT22;1518;52.408;13.060;2023-04-03T09:08:14;20.20;59.70
3017;DHT22;1518;52.408;13.060;2023-04-03T09:11:13;20.10;65.20
3017;DHT22;1518;52.408;13.060;2023-04-03T09:14:10;20.00;75.90
3017;DHT22;1518;52.408;13.060;2023-04-03T09:17:01;20.10;92.10
3017;DHT22;1518;52.408;13.060;2023-04-03T09:19:56;20.10;65.40
3017;DHT22;1518;52.408;13.060;2023-04-03T09:22:46;20.50;64.20
3017;DHT22;1518;52.408;13.060;2023-04-03T09:28:29;20.70;65.20
3017;DHT22;1518;52.408;13.060;2023-04-03T09:31:35;20.70;63.60
3017;DHT22;1518;52.408;13.060;2023-04-03T09:34:27;20.90;63.20
3017;DHT22;1518;52.408;13.060;2023-04-03T09:37:37;20.90;62.20
3017;DHT22;1518;52.408;13.060;2023-04-03T09:40:35;21.00;56.40
3017;DHT22;1518;52.408;13.060;2023-04-03T09:43:29;21.00;62.20
3017;DHT22;1518;52.408;13.060;2023-04-03T09:46:25;21.00;62.50
3017;DHT22;1518;52.408;13.060;2023-04-03T09:52:18;21.20;56.80
3017;DHT22;1518;52.408;13.060;2023-04-03T09:55:08;21.30;90.60
3017;DHT22;1518;52.408;13.060;2023-04-03T09:58:03;21.20;61.20
3017;DHT22;1518;52.408;13.060;2023-04-03T10:00:56;21.20;61.80
3017;DHT22;1518;52.408;13.060;2023-04-03T10:03:45;21.10;92.10
3017;DHT22;1518;52.408;13.060;2023-04-03T10:06:35;21.40;59.70
3017;DHT22;1518;52.408;13.060;2023-04-03T10:09:25;21.50;62.30
3017;DHT22;1518;52.408;13.060;2023-04-03T10:12:19;21.50;62.30
3017;DHT22;1518;52.408;13.060;2023-04-03T10:15:12;21.50;62.70
3017;DHT22;1518;52.408;13.060;2023-04-03T10:18:04;21.50;63.20
3017;DHT22;1518;52.408;13.060;2023-04-03T10:21:14;21.60;63.20
3017;DHT22;1518;52.408;13.060;2023-04-03T10:24:17;21.60;90.90
3017;DHT22;1518;52.408;13.060;2023-04-03T10:27:12;21.60;63.40
3017;DHT22;1518;52.408;13.060;2023-04-03T10:30:08;21.60;91.10
3017;DHT22;1518;52.408;13.060;2023-04-03T10:33:11;21.60;90.90
3017;DHT22;1518;52.408;13.060;2023-04-03T10:36:10;21.80;62.80
3017;DHT22;1518;52.408;13.060;2023-04-03T10:39:02;21.70;90.60
3017;DHT22;1518;52.408;13.060;2023-04-03T10:42:02;21.90;62.80
3017;DHT22;1518;52.408;13.060;2023-04-03T10:45:18;21.60;94.30
3017;DHT22;1518;52.408;13.060;2023-04-03T10:48:13;21.90;63.30
3017;DHT22;1518;52.408;13.060;2023-04-03T10:51:12;21.90;63.70
3017;DHT22;1518;52.408;13.060;2023-04-03T10:54:07;22.10;91.10
3017;DHT22;1518;52.408;13.060;2023-04-03T10:57:00;21.90;63.30
3017;DHT22;1518;52.408;13.060;2023-04-03T11:00:03;22.00;62.80
3017;DHT22;1518;52.408;13.060;2023-04-03T11:02:55;21.90;94.30
3017;DHT22;1518;52.408;13.060;2023-04-03T11:05:48;22.10;62.90
3017;DHT22;1518;52.408;13.060;2023-04-03T11:08:43;21.90;94.40
3017;DHT22;1518;52.408;13.060;2023-04-03T11:11:34;22.30;92.50
3017;DHT22;1518;52.408;13.060;2023-04-03T11:14:26;22.00;62.10
3017;DHT22;1518;52.408;13.060;2023-04-03T11:17:24;22.30;62.80
3017;DHT22;1518;52.408;13.060;2023-04-03T11:20:17;22.10;61.40
3017;DHT22;1518;52.408;13.060;2023-04-03T11:23:14;22.10;61.90
3017;DHT22;1518;52.408;13.060;2023-04-03T11:26:10;22.10;61.20
3017;DHT22;1518;52.408;13.060;2023-04-03T11:29:01;22.20;93.80
3017;DHT22;1518;52.408;13.060;2023-04-03T11:32:09;22.10;56.60
3017;DHT22;1518;52.408;13.060;2023-04-03T11:35:00;22.10;61.10
3017;DHT22;1518;52.408;13.060;2023-04-03T11:37:51;22.10;62.00
3017;DHT22;1518;52.408;13.060;2023-04-03T11:40:41;22.10;90.30
3017;DHT22;1518;52.408;13.060;2023-04-03T11:43:32;22.10;91.30
3017;DHT22;1518;52.408;13.060;2023-04-03T11:46:21;22.40;90.40
3017;DHT22;1518;52.408;13.060;2023-04-03T11:53:02;22.30;56.80
3017;DHT22;1518;52.408;13.060;2023-04-03T11:55:58;22.30;56.50
3017;DHT22;1518;52.408;13.060;2023-04-03T11:59:16;22.40;61.40
3017;DHT22;1518;52.408;13.060;2023-04-03T12:02:35;22.40;61.90
3017;DHT22;1518;52.408;13.060;2023-04-03T12:05:40;22.50;94.00
3017;DHT22;1518;52.408;13.060;2023-04-03T12:08:30;22.40;61.10
3017;DHT22;1518;52.408;13.060;2023-04-03T12:11:32;22.30;61.80
3017;DHT22;1518;52.408;13.060;2023-04-03T12:14:22;22.30;61.70
3017;DHT22;1518;52.408;13.060;2023-04-03T12:17:20;22.60;70.90
3017;DHT22;1518;52.408;13.060;2023-04-03T12:23:36;22.10;90.30
3017;DHT22;1518;52.408;13.060;2023-04-03T12:26:27;22.40;61.90
3017;DHT22;1518;52.408;13.060;2023-04-03T12:29:37;22.40;61.40
3017;DHT22;1518;52.408;13.060;2023-04-03T12:33:03;22.40;55.90
3017;DHT22;1518;52.408;13.060;2023-04-03T12:36:06;21.80;60.30
3017;DHT22;1518;52.408;13.060;2023-04-03T12:39:25;22.40;58.20
3017;DHT22;1518;52.408;13.060;2023-04-03T12:42:30;22.40;64.40
3017;DHT22;1518;52.408;13.060;2023-04-03T12:45:22;22.40;63.40
3017;DHT22;1518;52.408;13.060;2023-04-03T12:48:16;22.20;90.20
3017;DHT22;1518;52.408;13.060;2023-04-03T12:51:05;22.50;52.70
3017;DHT22;1518;52.408;13.060;2023-04-03T12:56:46;22.50;77.60
3017;DHT22;1518;52.408;13.060;2023-04-03T12:59:34;23.10;85.80
3017;DHT22;1518;52.408;13.060;2023-04-03T13:02:26;23.10;76.60
3017;DHT22;1518;52.408;13.060;2023-04-03T13:05:17;23.10;79.10
3017;DHT22;1518;52.408;13.060;2023-04-03T13:08:10;23.10;89.40
3017;DHT22;1518;52.408;13.060;2023-04-03T13:11:03;23.00;88.60
3017;DHT22;1518;52.408;13.060;2023-04-03T13:13:58;23.10;49.40
3017;DHT22;1518;52.408;13.060;2023-04-03T13:16:53;22.90;82.80
3017;DHT22;1518;52.408;13.060;2023-04-03T13:19:44;23.10;88.70
3017;DHT22;1518;52.408;13.060;2023-04-03T13:22:34;22.90;88.10
3017;DHT22;1518;52.408;13.060;2023-04-03T13:25:30;23.20;51.90
3017;DHT22;1518;52.408;13.060;2023-04-03T13:28:22;23.20;80.10
3017;DHT22;1518;52.408;13.060;2023-04-03T13:31:19;23.10;79.50
3017;DHT22;1518;52.408;13.060;2023-04-03T13:34:12;23.50;79.90
3017;DHT22;1518;52.408;13.060;2023-04-03T13:37:02;23.50;87.60
3017;DHT22;1518;52.408;13.060;2023-04-03T13:40:01;23.50;49.10
3017;DHT22;1518;52.408;13.060;2023-04-03T13:43:00;23.40;51.10
3017;DHT22;1518;52.408;13.060;2023-04-03T13:46:05;23.30;73.30
3017;DHT22;1518;52.408;13.060;2023-04-03T13:48:55;23.30;87.20
3017;DHT22;1518;52.408;13.060;2023-04-03T13:51:43;23.50;87.10
3017;DHT22;1518;52.408;13.060;2023-04-03T13:54:38;23.20;88.10
3017;DHT22;1518;52.408;13.060;2023-04-03T13:57:27;23.60;54.10
3017;DHT22;1518;52.408;13.060;2023-04-03T14:00:22;23.10;82.90
3017;DHT22;1518;52.408;13.060;2023-04-03T14:03:19;23.30;52.70
3017;DHT22;1518;52.408;13.060;2023-04-03T14:06:11;23.10;90.00
3017;DHT22;1518;52.408;13.060;2023-04-03T14:11:52;23.00;90.50
3017;DHT22;1518;52.408;13.060;2023-04-03T14:14:41;23.30;83.50
3017;DHT22;1518;52.408;13.060;2023-04-03T14:20:21;23.50;90.60
3017;DHT22;1518;52.408;13.060;2023-04-03T14:23:09;23.20;54.30
3017;DHT22;1518;52.408;13.060;2023-04-03T14:28:52;23.00;88.70
3017;DHT22;1518;52.408;13.060;2023-04-03T14:31:40;22.90;90.90
3017;DHT22;1518;52.408;13.060;2023-04-03T14:34:29;22.80;86.30
3017;DHT22;1518;52.408;13.060;2023-04-03T14:37:18;23.30;83.80
3017;DHT22;1518;52.408;13.060;2023-04-03T14:40:08;23.20;84.20
3017;DHT22;1518;52.408;13.060;2023-04-03T14:42:56;23.00;90.50
3017;DHT22;1518;52.408;13.060;2023-04-03T14:45:46;22.90;90.30
3017;DHT22;1518;52.408;13.060;2023-04-03T14:48:34;22.40;54.00
3017;DHT22;1518;52.408;13.060;2023-04-03T14:54:13;22.20;84.60
3017;DHT22;1518;52.408;13.060;2023-04-03T14:59:51;22.20;89.80
3017;DHT22;1518;52.408;13.060;2023-04-03T15:02:41;22.20;89.10
3017;DHT22;1518;52.408;13.060;2023-04-03T15:05:29;22.20;88.70
3017;DHT22;1518;52.408;13.060;2023-04-03T15:08:19;21.60;87.80
3017;DHT22;1518;52.408;13.060;2023-04-03T15:11:09;21.80;88.20
3017;DHT22;1518;52.408;13.060;2023-04-03T15:13:58;21.50;87.70
3017;DHT22;1518;52.408;13.060;2023-04-03T15:16:46;21.50;83.20
3017;DHT22;1518;52.408;13.060;2023-04-03T15:19:38;20.80;82.90
3017;DHT22;1518;52.408;13.060;2023-04-03T15:22:26;20.90;84.40
3017;DHT22;1518;52.408;13.060;2023-04-03T15:25:15;20.30;84.20
3017;DHT22;1518;52.408;13.060;2023-04-03T15:30:52;20.70;90.50
3017;DHT22;1518;52.408;13.060;2023-04-03T15:33:40;20.00;90.20
3017;DHT22;1518;52.408;13.060;2023-04-03T15:36:29;20.10;90.30
3017;DHT22;1518;52.408;13.060;2023-04-03T15:39:21;19.80;90.10
3017;DHT22;1518;52.408;13.060;2023-04-03T15:44:59;19.80;85.30
3017;DHT22;1518;52.408;13.060;2023-04-03T15:47:47;19.50;84.80
3017;DHT22;1518;52.408;13.060;2023-04-03T15:50:36;19.80;85.40
3017;DHT22;1518;52.408;13.060;2023-04-03T15:53:26;19.70;84.90
3017;DHT22;1518;52.408;13.060;2023-04-03T15:56:14;19.30;83.90
3017;DHT22;1518;52.408;13.060;2023-04-03T15:59:02;19.80;70.90
3017;DHT22;1518;52.408;13.060;2023-04-03T16:01:51;20.10;91.00
3017;DHT22;1518;52.408;13.060;2023-04-03T16:04:40;19.90;83.10
3017;DHT22;1518;52.408;13.060;2023-04-03T16:07:28;19.80;82.60
3017;DHT22;1518;52.408;13.060;2023-04-03T16:10:18;20.20;82.50
3017;DHT22;1518;52.408;13.060;2023-04-03T16:13:07;20.20;59.90
3017;DHT22;1518;52.408;13.060;2023-04-03T16:15:55;20.20;76.20
3017;DHT22;1518;52.408;13.060;2023-04-03T16:18:44;20.00;77.40
3017;DHT22;1518;52.408;13.060;2023-04-03T16:21:33;20.20;72.50
3017;DHT22;1518;52.408;13.060;2023-04-03T16:24:21;20.30;71.00
3017;DHT22;1518;52.408;13.060;2023-04-03T16:27:11;20.30;78.10
3017;DHT22;1518;52.408;13.060;2023-04-03T16:29:59;20.00;82.10
3017;DHT22;1518;52.408;13.060;2023-04-03T16:35:35;19.60;66.70
3017;DHT22;1518;52.408;13.060;2023-04-03T16:38:24;20.10;81.10
3017;DHT22;1518;52.408;13.060;2023-04-03T16:44:01;19.30;90.80
3017;DHT22;1518;52.408;13.060;2023-04-03T16:46:49;19.60;83.90
3017;DHT22;1518;52.408;13.060;2023-04-03T16:55:14;20.10;91.20
3017;DHT22;1518;52.408;13.060;2023-04-03T16:58:02;20.20;91.20
3017;DHT22;1518;52.408;13.060;2023-04-03T17:00:52;20.40;85.70
3017;DHT22;1518;52.408;13.060;2023-04-03T17:03:41;20.20;83.00
3017;DHT22;1518;52.408;13.060;2023-04-03T17:06:30;20.20;83.20
3017;DHT22;1518;52.408;13.060;2023-04-03T17:09:18;20.90;83.30
3017;DHT22;1518;52.408;13.060;2023-04-03T17:12:07;20.70;90.40
3017;DHT22;1518;52.408;13.060;2023-04-03T17:14:55;20.90;90.20
3017;DHT22;1518;52.408;13.060;2023-04-03T17:17:44;20.80;90.00
3017;DHT22;1518;52.408;13.060;2023-04-03T17:23:23;21.30;53.70
3017;DHT22;1518;52.408;13.060;2023-04-03T17:26:12;21.10;89.70
3017;DHT22;1518;52.408;13.060;2023-04-03T17:31:48;21.40;84.30
3017;DHT22;1518;52.408;13.060;2023-04-03T17:34:38;21.70;81.60
3017;DHT22;1518;52.408;13.060;2023-04-03T17:37:26;21.70;89.80
3017;DHT22;1518;52.408;13.060;2023-04-03T17:40:14;21.90;89.80
3017;DHT22;1518;52.408;13.060;2023-04-03T17:48:40;21.60;87.30
3017;DHT22;1518;52.408;13.060;2023-04-03T17:51:30;21.90;52.80
3017;DHT22;1518;52.408;13.060;2023-04-03T17:54:20;21.80;73.00
3017;DHT22;1518;52.408;13.060;2023-04-03T17:57:08;22.20;69.00
3017;DHT22;1518;52.408;13.060;2023-04-03T17:59:56;22.00;60.70
3017;DHT22;1518;52.408;13.060;2023-04-03T18:05:33;21.80;87.30
3017;DHT22;1518;52.408;13.060;2023-04-03T18:08:23;22.20;80.30
3017;DHT22;1518;52.408;13.060;2023-04-03T18:11:11;21.80;88.20
3017;DHT22;1518;52.408;13.060;2023-04-03T18:14:01;22.00;84.70
3017;DHT22;1518;52.408;13.060;2023-04-03T18:16:50;21.90;79.30
3017;DHT22;1518;52.408;13.060;2023-04-03T18:19:38;22.00;79.80
3017;DHT22;1518;52.408;13.060;2023-04-03T18:22:26;22.00;77.60
3017;DHT22;1518;52.408;13.060;2023-04-03T18:25:17;22.50;50.80
3017;DHT22;1518;52.408;13.060;2023-04-03T18:28:05;22.00;62.60
3017;DHT22;1518;52.408;13.060;2023-04-03T18:30:53;22.20;86.70
3017;DHT22;1518;52.408;13.060;2023-04-03T18:33:41;22.00;64.90
3017;DHT22;1518;52.408;13.060;2023-04-03T18:36:29;21.90;88.30
3017;DHT22;1518;52.408;13.060;2023-04-03T18:39:17;22.00;88.50
3017;DHT22;1518;52.408;13.060;2023-04-03T18:42:09;21.90;88.10
3017;DHT22;1518;52.408;13.060;2023-04-03T18:45:00;21.80;87.90
3017;DHT22;1518;52.408;13.060;2023-04-03T18:53:26;22.30;88.50
3017;DHT22;1518;52.408;13.060;2023-04-03T18:56:14;21.90;86.40
3017;DHT22;1518;52.408;13.060;2023-04-03T18:59:04;22.60;83.30
3017;DHT22;1518;52.408;13.060;2023-04-03T19:01:53;22.30;79.30
3017;DHT22;1518;52.408;13.060;2023-04-03T19:04:41;22.30;79.90
3017;DHT22;1518;52.408;13.060;2023-04-03T19:07:29;22.50;79.90
3017;DHT22;1518;52.408;13.060;2023-04-03T19:13:06;22.10;59.50
3017;DHT22;1518;52.408;13.060;2023-04-03T19:15:55;22.20;52.10
3017;DHT22;1518;52.408;13.060;2023-04-03T19:18:44;22.10;81.70
3017;DHT22;1518;52.408;13.060;2023-04-03T19:30:03;22.50;73.30
3017;DHT22;1518;52.408;13.060;2023-04-03T19:32:54;22.00;81.60
3017;DHT22;1518;52.408;13.060;2023-04-03T19:41:21;22.20;77.60
3017;DHT22;1518;52.408;13.060;2023-04-03T19:44:11;22.30;79.60
3017;DHT22;1518;52.408;13.060;2023-04-03T19:46:59;22.30;50.30
3017;DHT22;1518;52.408;13.060;2023-04-03T19:49:49;22.00;87.40
3017;DHT22;1518;52.408;13.060;2023-04-03T19:52:38;22.10;81.90
3017;DHT22;1518;52.408;13.060;2023-04-03T19:55:26;22.30;85.20
3017;DHT22;1518;52.408;13.060;2023-04-03T19:58:16;22.60;79.20
3017;DHT22;1518;52.408;13.060;2023-04-03T20:01:05;22.20;76.50
3017;DHT22;1518;52.408;13.060;2023-04-03T20:03:53;22.40;77.80
3017;DHT22;1518;52.408;13.060;2023-04-03T20:06:42;22.60;78.20
3017;DHT22;1518;52.408;13.060;2023-04-03T20:09:30;22.50;84.70
3017;DHT22;1518;52.408;13.060;2023-04-03T20:12:18;22.20;88.80
3017;DHT22;1518;52.408;13.060;2023-04-03T20:15:07;22.10;88.80
3017;DHT22;1518;52.408;13.060;2023-04-03T20:20:51;22.10;72.40
3017;DHT22;1518;52.408;13.060;2023-04-03T20:23:41;22.50;80.60
3017;DHT22;1518;52.408;13.060;2023-04-03T20:26:30;22.50;88.70
3017;DHT22;1518;52.408;13.060;2023-04-03T20:29:19;22.40;83.40
3017;DHT22;1518;52.408;13.060;2023-04-03T20:34:57;22.40;89.20
3017;DHT22;1518;52.408;13.060;2023-04-03T20:40:40;23.00;53.40
3017;DHT22;1518;52.408;13.060;2023-04-03T20:43:28;22.00;80.60
3017;DHT22;1518;52.408;13.060;2023-04-03T20:46:16;22.50;83.20
3017;DHT22;1518;52.408;13.060;2023-04-03T20:51:54;22.30;88.90
3017;DHT22;1518;52.408;13.060;2023-04-03T20:54:42;22.40;89.00
3017;DHT22;1518;52.408;13.060;2023-04-03T20:57:32;22.40;89.00
3017;DHT22;1518;52.408;13.060;2023-04-03T21:00:20;22.10;88.50
3017;DHT22;1518;52.408;13.060;2023-04-03T21:03:09;22.00;80.10
3017;DHT22;1518;52.408;13.060;2023-04-03T21:21:49;22.20;86.50
3017;DHT22;1518;52.408;13.060;2023-04-03T21:24:38;22.00;79.80
3017;DHT22;1518;52.408;13.060;2023-04-03T21:27:27;22.40;88.30
3017;DHT22;1518;52.408;13.060;2023-04-03T21:30:15;22.70;66.20
3017;DHT22;1518;52.408;13.060;2023-04-03T21:33:03;22.90;88.70
3017;DHT22;1518;52.408;13.060;2023-04-03T21:35:53;22.50;84.20
3017;DHT22;1518;52.408;13.060;2023-04-03T21:41:33;22.30;88.00
3017;DHT22;1518;52.408;13.060;2023-04-03T21:44:22;22.30;87.80
3017;DHT22;1518;52.408;13.060;2023-04-03T21:52:48;22.30;51.90
3017;DHT22;1518;52.408;13.060;2023-04-03T21:55:39;22.30;60.40
3017;DHT22;1518;52.408;13.060;2023-04-03T21:58:28;21.50;51.20
3017;DHT22;1518;52.408;13.060;2023-04-03T22:01:18;22.30;50.20
3017;DHT22;1518;52.408;13.060;2023-04-03T22:04:06;22.20;83.50
3017;DHT22;1518;52.408;13.060;2023-04-03T22:06:54;22.50;85.90
3017;DHT22;1518;52.408;13.060;2023-04-03T22:09:44;22.00;79.30
3017;DHT22;1518;52.408;13.060;2023-04-03T22:12:32;22.00;87.10
3017;DHT22;1518;52.408;13.060;2023-04-03T22:15:20;22.20;86.70
3017;DHT22;1518;52.408;13.060;2023-04-03T22:18:09;23.00;88.40
3017;DHT22;1518;52.408;13.060;2023-04-03T22:20:58;22.50;79.60
3017;DHT22;1518;52.408;13.060;2023-04-03T22:26:35;22.20;64.50
3017;DHT22;1518;52.408;13.060;2023-04-03T22:29:25;22.10;87.10
3017;DHT22;1518;52.408;13.060;2023-04-03T22:32:13;21.90;79.10
3017;DHT22;1518;52.408;13.060;2023-04-03T22:35:01;22.00;79.10
3017;DHT22;1518;52.408;13.060;2023-04-03T22:37:49;22.50;82.00
3017;DHT22;1518;52.408;13.060;2023-04-03T22:40:37;22.40;82.30
3017;DHT22;1518;52.408;13.060;2023-04-03T22:43:28;22.10;79.20
3017;DHT22;1518;52.408;13.060;2023-04-03T22:46:17;22.50;83.70
3017;DHT22;1518;52.408;13.060;2023-04-03T22:49:06;22.50;79.70
3017;DHT22;1518;52.408;13.060;2023-04-03T22:51:54;22.20;79.10
3017;DHT22;1518;52.408;13.060;2023-04-03T22:54:42;22.60;79.30
3017;DHT22;1518;52.408;13.060;2023-04-03T22:57:30;22.30;81.20
3017;DHT22;1518;52.408;13.060;2023-04-03T23:00:19;22.50;67.40
3017;DHT22;1518;52.408;13.060;2023-04-03T23:03:07;22.20;86.80
3017;DHT22;1518;52.408;13.060;2023-04-03T23:05:58;22.50;79.60
3017;DHT22;1518;52.408;13.060;2023-04-03T23:08:49;22.40;79.20
3017;DHT22;1518;52.408;13.060;2023-04-03T23:11:37;22.20;78.60
3017;DHT22;1518;52.408;13.060;2023-04-03T23:14:25;21.90;79.00
3017;DHT22;1518;52.408;13.060;2023-04-03T23:17:14;21.90;78.70
3017;DHT22;1518;52.408;13.060;2023-04-03T23:20:03;21.90;86.70
3017;DHT22;1518;52.408;13.060;2023-04-03T23:22:51;21.90;79.10
3017;DHT22;1518;52.408;13.060;2023-04-03T23:25:39;22.10;79.30
3017;DHT22;1518;52.408;13.060;2023-04-03T23:28:28;21.90;82.00
3017;DHT22;1518;52.408;13.060;2023-04-03T23:34:05;22.60;69.10
3017;DHT22;1518;52.408;13.060;2023-04-03T23:36:53;22.00;78.60
3017;DHT22;1518;52.408;13.060;2023-04-03T23:39:41;22.30;78.50
3017;DHT22;1518;52.408;13.060;2023-04-03T23:42:29;22.40;80.60
3017;DHT22;1518;52.408;13.060;2023-04-03T23:45:17;22.30;81.70
3017;DHT22;1518;52.408;13.060;2023-04-03T23:48:06;22.00;84.00
3017;DHT22;1518;52.408;13.060;2023-04-03T23:50:56;22.30;51.20
3017;DHT22;1518;52.408;13.060;2023-04-03T23:53:44;22.60;82.10
3017;DHT22;1518;52.408;13.060;2023-04-03T23:56:32;22.10;70.30
3017;DHT22;1518;52.408;13.060;2023-04-03T23:59:20;22.00;85.80
